Lady Maryland — WTV4008 — position and weather

sailwx.info

Track history (hours):
 
Tides and Currents Weather Stations Pressure Air Temp Water Temp Dewpoint Dewpoint Depression Visibility Wind Speed Wind Dir Waves Ship Positions

Lady Maryland

Owner: LIVING CLASSROOMS FOUNDATION, BALTIMORE, MD. More information available from US FCC via Universal Licensing System and Coast Guard Vessel Documentation Center.

Last reported at 2019-Oct-18 12:14 UTC. Time now 2019-Oct-23 01:11 UTC.
Position N 38°54' W 076°25'.

Length 22 m.

Type: Sailing vessel. MMSI: 367350650.

Date/timePositionNaut miles runAvg speedWind from/ knotsBaromVisibWave heightAir tempDewpointWater temp
2019-Oct-18 12:14N 38°54' W 076°25'1 6.3
2019-Oct-18 12:00N 38°55' W 076°25'3 6.1
2019-Oct-18 11:30N 38°58' W 076°25'1 1.5
2019-Oct-18 11:00N 38°58' W 076°24'3 5.5
2019-Oct-18 10:30N 39°01' W 076°23'11 1.1
2019-Oct-18 00:55N 39°11' W 076°28'5 6.0
2019-Oct-18 00:05N 39°14' W 076°33'1 6.9
2019-Oct-17 23:54N 39°15' W 076°34'  
2019-Oct-15 17:58N 39°17' W 076°35'2 0.6
2019-Oct-15 15:09N 39°15' W 076°34'1 3.2
2019-Oct-15 14:57N 39°16' W 076°35'1 0.0
2019-Oct-14 17:52N 39°17' W 076°35'2 0.7
2019-Oct-14 15:06N 39°15' W 076°34'0 4.3
2019-Oct-14 15:00N 39°15' W 076°34'  
2019-Oct-11 18:10N 39°17' W 076°35'1 4.9
2019-Oct-11 18:01N 39°16' W 076°35'1 0.2
2019-Oct-11 15:28N 39°16' W 076°34'2 0.2
2019-Oct-11 06:34N 39°17' W 076°36'0 0.0
2019-Oct-11 02:48N 39°17' W 076°36'0 0.0
2019-Oct-10 18:06N 39°17' W 076°35'0 3.5
2019-Oct-10 18:00N 39°16' W 076°35'1 0.5
2019-Oct-10 16:01N 39°16' W 076°35'0 2.3
2019-Oct-10 15:54N 39°16' W 076°34'1 1.9
2019-Oct-10 15:30N 39°16' W 076°35'0 0.0
2019-Oct-08 17:04N 39°16' W 076°35'0 6.5
2019-Oct-08 17:00N 39°16' W 076°35'1 0.5
2019-Oct-08 15:03N 39°15' W 076°35'0 2.3
2019-Oct-08 14:54N 39°16' W 076°35'0 0.1
2019-Oct-08 14:18N 39°16' W 076°35'1 2.4
2019-Oct-08 14:00N 39°16' W 076°35'  
Track history (hours):
 
Tides and Currents Weather Stations Pressure Air Temp Water Temp Dewpoint Dewpoint Depression Visibility Wind Speed Wind Dir Waves Ship Positions

Lady Maryland

Owner: LIVING CLASSROOMS FOUNDATION, BALTIMORE, MD. More information available from US FCC via Universal Licensing System and Coast Guard Vessel Documentation Center.

Last reported at 2019-Oct-18 12:14 UTC. Time now 2019-Oct-23 01:11 UTC.
Position N 38°54' W 076°25'.

Length 22 m.

Type: Sailing vessel. MMSI: 367350650.

Date/timePositionNaut miles runAvg speedWind from/ knotsBaromVisibWave heightAir tempDewpointWater temp
2019-Oct-18 12:14N 38°54' W 076°25'1 6.3
2019-Oct-18 12:00N 38°55' W 076°25'3 6.1
2019-Oct-18 11:30N 38°58' W 076°25'1 1.5
2019-Oct-18 11:00N 38°58' W 076°24'3 5.5
2019-Oct-18 10:30N 39°01' W 076°23'11 1.1
2019-Oct-18 00:55N 39°11' W 076°28'5 6.0
2019-Oct-18 00:05N 39°14' W 076°33'1 6.9
2019-Oct-17 23:54N 39°15' W 076°34'  
2019-Oct-15 17:58N 39°17' W 076°35'2 0.6
2019-Oct-15 15:09N 39°15' W 076°34'1 3.2
2019-Oct-15 14:57N 39°16' W 076°35'1 0.0
2019-Oct-14 17:52N 39°17' W 076°35'2 0.7
2019-Oct-14 15:06N 39°15' W 076°34'0 4.3
2019-Oct-14 15:00N 39°15' W 076°34'  
2019-Oct-11 18:10N 39°17' W 076°35'1 4.9
2019-Oct-11 18:01N 39°16' W 076°35'1 0.2
2019-Oct-11 15:28N 39°16' W 076°34'2 0.2
2019-Oct-11 06:34N 39°17' W 076°36'0 0.0
2019-Oct-11 02:48N 39°17' W 076°36'0 0.0
2019-Oct-10 18:06N 39°17' W 076°35'0 3.5
2019-Oct-10 18:00N 39°16' W 076°35'1 0.5
2019-Oct-10 16:01N 39°16' W 076°35'0 2.3
2019-Oct-10 15:54N 39°16' W 076°34'1 1.9
2019-Oct-10 15:30N 39°16' W 076°35'0 0.0
2019-Oct-08 17:04N 39°16' W 076°35'0 6.5
2019-Oct-08 17:00N 39°16' W 076°35'1 0.5
2019-Oct-08 15:03N 39°15' W 076°35'0 2.3
2019-Oct-08 14:54N 39°16' W 076°35'0 0.1
2019-Oct-08 14:18N 39°16' W 076°35'1 2.4
2019-Oct-08 14:00N 39°16' W 076°35'  

Dump ship's entire track history